Time;durP1;ratioP1;P1;durP2;ratioP2;P2;SDS_P1;SDS_P2;PMS_P1;PMS_P2;Temp;Humidity;BMP_temperature;BMP_pressure;BME280_temperature;BME280_humidity;BME280_pressure;Samples;Min_cycle;Max_cycle;Signal;HPM_P1;HPM_P2
2022/01/06 00:01:17;;;;;;;13.60;12.80;;;4.70;99.90;;;;;;6211734;23;21186;-73
2022/01/06 00:03:44;;;;;;;14.27;12.90;;;4.60;99.90;;;;;;6211516;23;20413;-73
2022/01/06 00:06:11;;;;;;;12.90;12.17;;;4.60;99.90;;;;;;6211636;23;20421;-73
2022/01/06 00:08:39;;;;;;;13.20;12.50;;;4.50;99.90;;;;;;6211091;23;20437;-73
2022/01/06 00:11:09;;;;;;;13.13;12.33;;;4.50;99.90;;;;;;6211829;23;20420;-72
2022/01/06 00:13:47;;;;;;;13.83;12.93;;;4.50;99.90;;;;;;6211862;23;20440;-73
2022/01/06 00:16:25;;;;;;;13.93;12.93;;;4.60;99.90;;;;;;6211259;23;20938;-73
2022/01/06 00:24:26;;;;;;;13.17;12.37;;;4.80;99.90;;;;;;6211510;23;20412;-73
2022/01/06 00:26:55;;;;;;;12.37;11.50;;;4.90;99.90;;;;;;6211338;23;20414;-72
2022/01/06 00:29:21;;;;;;;12.77;12.17;;;4.90;99.90;;;;;;6211666;23;20524;-72
2022/01/06 00:31:48;;;;;;;12.97;12.03;;;4.90;99.90;;;;;;6211493;23;20881;-73
2022/01/06 00:34:15;;;;;;;12.43;11.63;;;4.90;99.90;;;;;;6211568;23;20405;-73
2022/01/06 00:36:43;;;;;;;13.10;12.00;;;4.90;99.90;;;;;;6211242;23;20655;-72
2022/01/06 00:39:11;;;;;;;13.43;12.43;;;4.90;99.90;;;;;;6211588;23;20411;-72
2022/01/06 00:41:38;;;;;;;13.17;12.33;;;4.80;99.90;;;;;;6211551;23;20415;-73
2022/01/06 00:44:08;;;;;;;14.00;12.77;;;4.80;99.90;;;;;;6211316;23;20417;-72
2022/01/06 00:46:35;;;;;;;13.07;12.10;;;4.70;99.90;;;;;;6211699;23;20469;-73
2022/01/06 00:49:01;;;;;;;12.80;12.00;;;4.80;99.90;;;;;;6212154;23;20416;-74
2022/01/06 00:51:28;;;;;;;13.53;12.63;;;4.90;99.90;;;;;;6211511;23;21118;-74
2022/01/06 00:53:55;;;;;;;13.70;12.83;;;4.80;99.90;;;;;;6211609;23;20406;-74
2022/01/06 00:56:21;;;;;;;13.00;12.37;;;4.80;99.90;;;;;;6211023;23;20955;-74
2022/01/06 00:58:49;;;;;;;11.90;11.30;;;4.90;99.90;;;;;;6211473;23;20411;-74
2022/01/06 01:01:17;;;;;;;16.73;13.33;;;5.00;99.90;;;;;;6211796;23;20440;-74
2022/01/06 01:03:44;;;;;;;14.23;13.23;;;5.00;99.90;;;;;;6211491;23;20417;-74
2022/01/06 01:06:10;;;;;;;14.30;13.10;;;4.90;99.90;;;;;;6211368;23;20435;-75
2022/01/06 01:08:38;;;;;;;13.87;12.70;;;4.90;99.90;;;;;;6211901;23;20757;-73
2022/01/06 01:11:05;;;;;;;12.50;11.40;;;4.80;99.90;;;;;;6213559;23;20441;-74
2022/01/06 01:13:36;;;;;;;13.03;12.20;;;4.80;99.90;;;;;;6213590;23;20409;-73
2022/01/06 01:16:19;;;;;;;13.27;12.53;;;4.90;99.90;;;;;;6213763;23;20510;-74
2022/01/06 01:18:48;;;;;;;13.70;12.57;;;4.90;99.90;;;;;;6213530;23;20403;-73
2022/01/06 01:21:15;;;;;;;12.97;12.13;;;4.70;99.90;;;;;;6213111;23;20936;-73
2022/01/06 01:23:42;;;;;;;16.07;15.13;;;4.70;99.90;;;;;;6213293;23;20421;-73
2022/01/06 01:26:08;;;;;;;13.90;12.90;;;4.70;99.90;;;;;;6213237;23;20403;-74
2022/01/06 01:28:43;;;;;;;13.93;12.90;;;4.70;99.90;;;;;;6213395;23;20407;-73
2022/01/06 01:31:23;;;;;;;13.70;12.83;;;4.50;99.90;;;;;;6212948;23;20690;-74
2022/01/06 01:33:52;;;;;;;14.27;13.37;;;4.50;99.90;;;;;;6213623;23;20397;-74
2022/01/06 01:36:20;;;;;;;14.20;13.50;;;4.40;99.90;;;;;;6213514;23;20448;-73
2022/01/06 01:38:48;;;;;;;17.03;15.77;;;4.40;99.90;;;;;;6213116;23;20919;-72
2022/01/06 01:41:15;;;;;;;18.30;17.20;;;4.40;99.90;;;;;;6213569;23;20406;-73
2022/01/06 01:43:42;;;;;;;16.03;15.30;;;4.40;99.90;;;;;;6213052;23;20404;-73
2022/01/06 01:46:12;;;;;;;15.70;15.00;;;4.50;99.90;;;;;;6213153;23;20405;-73
2022/01/06 01:48:43;;;;;;;16.33;15.30;;;4.50;99.90;;;;;;6213091;23;20409;-73
2022/01/06 01:51:11;;;;;;;16.43;15.53;;;4.50;99.90;;;;;;6212991;23;20405;-72
2022/01/06 01:53:39;;;;;;;16.17;15.27;;;4.50;99.90;;;;;;6213014;23;20781;-73
2022/01/06 01:56:06;;;;;;;16.53;15.40;;;4.50;99.90;;;;;;6213071;23;20436;-72
2022/01/06 01:58:34;;;;;;;17.23;16.20;;;4.50;99.90;;;;;;6213057;23;20462;-72
2022/01/06 02:01:01;;;;;;;16.30;15.50;;;4.50;99.90;;;;;;6213017;23;20897;-81
2022/01/06 02:03:28;;;;;;;17.47;16.20;;;4.60;99.90;;;;;;6212926;23;20416;-70
2022/01/06 02:05:55;;;;;;;15.47;14.80;;;4.50;99.90;;;;;;6212899;23;20641;-71
2022/01/06 02:08:22;;;;;;;16.70;15.67;;;4.50;99.90;;;;;;6211998;23;20442;-71
2022/01/06 02:10:49;;;;;;;15.90;15.20;;;4.60;99.90;;;;;;6211014;23;20414;-71
2022/01/06 02:13:16;;;;;;;17.00;15.50;;;4.60;99.90;;;;;;6212078;23;20780;-71
2022/01/06 02:15:43;;;;;;;16.37;15.37;;;4.70;99.90;;;;;;6211510;23;20813;-71
2022/01/06 02:18:10;;;;;;;16.30;15.60;;;4.70;99.90;;;;;;6211371;23;20545;-71
2022/01/06 02:20:38;;;;;;;16.20;14.80;;;4.70;99.90;;;;;;6211380;23;20412;-72
2022/01/06 02:23:04;;;;;;;16.97;15.90;;;4.70;99.90;;;;;;6212125;23;20409;-72
2022/01/06 02:25:33;;;;;;;16.10;15.30;;;4.80;99.90;;;;;;6211902;23;20407;-72
2022/01/06 02:28:02;;;;;;;15.70;14.80;;;4.70;99.90;;;;;;6211413;23;20409;-73
2022/01/06 02:30:33;;;;;;;16.00;15.10;;;4.70;99.90;;;;;;6211802;23;20730;-72
2022/01/06 02:33:00;;;;;;;15.53;14.63;;;4.70;99.90;;;;;;6211810;23;20417;-73
2022/01/06 02:35:29;;;;;;;17.43;16.30;;;4.80;99.90;;;;;;6211682;23;20437;-73
2022/01/06 02:37:57;;;;;;;15.50;14.50;;;4.80;99.90;;;;;;6211636;23;20748;-73
2022/01/06 02:40:25;;;;;;;15.77;14.80;;;4.80;99.90;;;;;;6211764;23;20408;-72
2022/01/06 02:42:55;;;;;;;16.00;15.00;;;4.70;99.90;;;;;;6211224;23;20413;-72
2022/01/06 02:45:23;;;;;;;14.40;13.60;;;4.70;99.90;;;;;;6211730;23;20453;-73
2022/01/06 02:47:50;;;;;;;15.50;14.57;;;4.70;99.90;;;;;;6211669;23;20462;-73
2022/01/06 02:50:18;;;;;;;17.53;16.00;;;4.60;99.90;;;;;;6211793;23;20409;-72
2022/01/06 02:52:45;;;;;;;14.33;13.50;;;4.50;99.90;;;;;;6211343;23;20423;-73
2022/01/06 02:55:14;;;;;;;14.40;13.60;;;4.60;99.90;;;;;;6211044;23;20932;-72
2022/01/06 02:57:42;;;;;;;15.23;14.40;;;4.50;99.90;;;;;;6211005;23;20908;-73
2022/01/06 03:00:11;;;;;;;13.47;12.63;;;4.60;99.90;;;;;;6211222;23;20411;-73
2022/01/06 03:02:38;;;;;;;14.27;13.13;;;4.60;99.90;;;;;;6211405;23;20414;-73
2022/01/06 03:05:05;;;;;;;13.13;12.43;;;4.50;99.90;;;;;;6211485;23;20416;-72
2022/01/06 03:07:32;;;;;;;13.33;12.53;;;4.40;99.90;;;;;;6211233;23;20453;-72
2022/01/06 03:10:02;;;;;;;15.53;14.57;;;4.40;99.90;;;;;;6211051;23;20412;-72
2022/01/06 03:12:34;;;;;;;14.17;13.50;;;4.40;99.90;;;;;;6211033;23;20447;-72
2022/01/06 03:15:01;;;;;;;14.57;13.70;;;4.40;99.90;;;;;;6211717;23;20408;-72
2022/01/06 03:17:27;;;;;;;14.60;13.50;;;4.50;99.90;;;;;;6211071;23;20409;-72
2022/01/06 03:19:54;;;;;;;13.57;13.00;;;4.60;99.90;;;;;;6211182;23;20416;-73
2022/01/06 03:22:21;;;;;;;13.73;13.07;;;4.60;99.90;;;;;;6211093;23;20455;-73
2022/01/06 03:24:47;;;;;;;14.57;13.67;;;4.70;99.90;;;;;;6211574;23;20404;-72
2022/01/06 03:27:14;;;;;;;14.20;13.40;;;4.70;99.90;;;;;;6211307;23;20459;-72
2022/01/06 03:29:42;;;;;;;13.90;13.20;;;4.70;99.90;;;;;;6211104;23;20420;-73
2022/01/06 03:32:09;;;;;;;15.30;14.33;;;4.70;99.90;;;;;;6211083;23;20414;-72
2022/01/06 03:34:36;;;;;;;14.20;13.60;;;4.90;99.90;;;;;;6211140;23;20408;-72
2022/01/06 03:37:05;;;;;;;14.17;13.47;;;5.00;99.90;;;;;;6212328;23;20445;-73
2022/01/06 03:39:32;;;;;;;14.17;13.57;;;4.90;99.90;;;;;;6212481;23;20496;-73
2022/01/06 03:41:59;;;;;;;14.60;13.90;;;4.90;99.90;;;;;;6212185;23;20412;-72
2022/01/06 03:44:26;;;;;;;15.93;14.77;;;4.70;99.90;;;;;;6211776;23;21085;-72
2022/01/06 03:46:54;;;;;;;16.27;15.10;;;4.60;99.90;;;;;;6211759;23;20894;-73
2022/01/06 03:49:21;;;;;;;15.67;14.73;;;4.80;99.90;;;;;;6212230;23;20431;-72
2022/01/06 03:51:48;;;;;;;15.30;14.37;;;4.80;99.90;;;;;;6212517;23;20410;-72
2022/01/06 03:54:15;;;;;;;15.37;14.30;;;4.80;99.90;;;;;;6212311;23;20412;-72
2022/01/06 03:56:42;;;;;;;16.10;15.10;;;4.80;99.90;;;;;;6211867;23;20454;-72
2022/01/06 03:59:08;;;;;;;15.97;14.87;;;4.60;99.90;;;;;;6211640;23;20729;-72
2022/01/06 04:01:35;;;;;;;14.90;14.03;;;4.60;99.90;;;;;;6212242;23;20404;-72
2022/01/06 04:04:03;;;;;;;14.83;14.07;;;4.60;99.90;;;;;;6211794;23;20410;-72
2022/01/06 04:06:30;;;;;;;14.70;13.80;;;4.50;99.90;;;;;;6212040;23;20768;-72
2022/01/06 04:08:57;;;;;;;14.67;13.60;;;4.60;99.90;;;;;;6211755;23;20515;-72
2022/01/06 04:11:24;;;;;;;16.23;14.40;;;4.60;99.90;;;;;;6211619;23;20419;-73
2022/01/06 04:13:51;;;;;;;15.53;14.63;;;4.70;99.90;;;;;;6211508;23;20774;-73
2022/01/06 04:16:18;;;;;;;14.93;14.13;;;4.70;99.90;;;;;;6212161;23;20535;-73
2022/01/06 04:18:45;;;;;;;14.70;13.73;;;4.90;99.90;;;;;;6212257;23;20434;-73
2022/01/06 04:21:13;;;;;;;14.90;13.80;;;4.90;99.90;;;;;;6211529;23;20471;-73
2022/01/06 04:23:40;;;;;;;13.57;12.97;;;4.90;99.90;;;;;;6212022;23;20459;-73
2022/01/06 04:26:07;;;;;;;15.60;14.70;;;4.90;99.90;;;;;;6211875;23;20552;-73
2022/01/06 04:28:33;;;;;;;14.70;13.80;;;5.00;99.90;;;;;;6211794;23;20418;-72
2022/01/06 04:31:00;;;;;;;15.10;14.20;;;5.00;99.90;;;;;;6211535;23;20405;-73
2022/01/06 04:33:27;;;;;;;14.03;13.20;;;5.10;99.90;;;;;;6210856;23;20890;-73
2022/01/06 04:35:53;;;;;;;13.97;13.07;;;5.00;99.90;;;;;;6211124;23;20444;-73
2022/01/06 04:38:22;;;;;;;13.47;12.77;;;4.90;99.90;;;;;;6211579;23;20404;-73
2022/01/06 04:40:49;;;;;;;15.17;14.23;;;4.90;99.90;;;;;;6211437;23;20943;-73
2022/01/06 04:43:16;;;;;;;14.40;13.60;;;4.90;99.90;;;;;;6211323;23;20413;-72
2022/01/06 04:45:43;;;;;;;14.20;13.30;;;4.90;99.90;;;;;;6210716;23;20901;-72
2022/01/06 04:48:10;;;;;;;14.53;13.57;;;4.90;99.90;;;;;;6211200;23;20413;-71
2022/01/06 04:50:36;;;;;;;14.60;13.90;;;4.90;99.90;;;;;;6211452;23;20410;-72
2022/01/06 04:53:03;;;;;;;14.80;14.00;;;4.90;99.90;;;;;;6211643;23;20463;-71
2022/01/06 04:55:31;;;;;;;13.90;13.30;;;5.00;99.90;;;;;;6211335;23;20411;-72
2022/01/06 04:57:58;;;;;;;14.50;13.80;;;5.00;99.90;;;;;;6211121;23;20421;-72
2022/01/06 05:00:25;;;;;;;15.17;14.37;;;5.00;99.90;;;;;;6210975;23;20435;-72
2022/01/06 05:02:51;;;;;;;14.67;13.97;;;5.00;99.90;;;;;;6211327;23;20409;-72
2022/01/06 05:05:18;;;;;;;15.60;14.40;;;4.90;99.90;;;;;;6211460;23;20786;-72
2022/01/06 05:07:45;;;;;;;14.00;13.33;;;4.90;99.90;;;;;;6210549;23;20440;-72
2022/01/06 05:10:12;;;;;;;15.93;14.97;;;4.80;99.90;;;;;;6210975;23;20440;-73
2022/01/06 05:12:44;;;;;;;14.83;13.73;;;4.90;99.90;;;;;;6210863;23;20404;-72
2022/01/06 05:15:13;;;;;;;14.47;13.80;;;4.80;99.90;;;;;;6211094;23;20413;-73
2022/01/06 05:17:39;;;;;;;14.37;13.67;;;4.90;99.90;;;;;;6210225;23;20446;-72
2022/01/06 05:20:08;;;;;;;15.13;14.10;;;4.80;99.90;;;;;;6210828;23;20411;-73
2022/01/06 05:22:41;;;;;;;16.07;14.93;;;4.80;99.90;;;;;;6211244;23;20413;-73
2022/01/06 05:25:08;;;;;;;16.03;15.10;;;4.90;99.90;;;;;;6210631;23;20416;-73
2022/01/06 05:27:35;;;;;;;15.30;14.10;;;4.90;99.90;;;;;;6211312;23;20404;-73
2022/01/06 05:30:04;;;;;;;15.40;14.70;;;4.80;99.90;;;;;;6211157;23;20409;-73
2022/01/06 05:32:31;;;;;;;14.33;13.53;;;4.80;99.90;;;;;;6211547;23;20412;-73
2022/01/06 05:34:57;;;;;;;15.30;14.50;;;4.80;99.90;;;;;;6211163;23;20409;-73
2022/01/06 05:37:24;;;;;;;15.40;14.30;;;4.70;99.90;;;;;;6211280;23;20507;-72
2022/01/06 05:39:51;;;;;;;14.97;14.17;;;4.80;99.90;;;;;;6210857;23;20404;-72
2022/01/06 05:42:17;;;;;;;15.87;14.70;;;4.80;99.90;;;;;;6210973;23;20916;-73
2022/01/06 05:44:44;;;;;;;15.63;14.40;;;4.80;99.90;;;;;;6211180;23;20752;-72
2022/01/06 05:47:12;;;;;;;14.73;14.03;;;4.90;99.90;;;;;;6210967;23;20405;-72
2022/01/06 05:49:38;;;;;;;14.27;13.57;;;5.00;99.90;;;;;;6211330;23;20439;-71
2022/01/06 05:52:06;;;;;;;14.03;13.23;;;4.80;99.90;;;;;;6210999;23;20418;-73
2022/01/06 05:54:32;;;;;;;15.10;14.40;;;4.90;99.90;;;;;;6211102;23;20450;-72
2022/01/06 05:57:00;;;;;;;14.50;13.63;;;5.00;99.90;;;;;;6212464;23;20440;-73
2022/01/06 05:59:28;;;;;;;14.93;14.13;;;5.10;99.90;;;;;;6212704;23;20414;-72
2022/01/06 06:01:55;;;;;;;15.60;14.30;;;5.20;99.90;;;;;;6212479;23;20834;-73
2022/01/06 06:04:23;;;;;;;14.90;14.10;;;5.20;99.90;;;;;;6212853;23;20408;-73
2022/01/06 06:06:50;;;;;;;14.87;14.17;;;5.30;99.90;;;;;;6212683;23;20425;-73
2022/01/06 06:09:16;;;;;;;13.67;13.07;;;5.40;99.90;;;;;;6212927;23;20911;-73
2022/01/06 06:11:43;;;;;;;13.70;13.00;;;5.40;99.90;;;;;;6211786;23;20420;-73
2022/01/06 06:14:10;;;;;;;14.50;13.60;;;5.30;99.90;;;;;;6211798;23;20531;-73
2022/01/06 06:16:37;;;;;;;14.63;13.83;;;5.30;99.90;;;;;;6211532;23;20490;-73
2022/01/06 06:19:03;;;;;;;15.33;14.30;;;5.10;99.90;;;;;;6212243;23;20415;-73
2022/01/06 06:21:31;;;;;;;14.77;13.90;;;5.00;99.90;;;;;;6211863;23;20512;-72
2022/01/06 06:23:58;;;;;;;13.90;13.20;;;4.90;99.90;;;;;;6211400;23;20414;-73
2022/01/06 06:26:24;;;;;;;14.17;13.50;;;4.80;99.90;;;;;;6211846;23;20401;-73
2022/01/06 06:28:51;;;;;;;15.63;14.73;;;4.90;99.90;;;;;;6212526;23;20414;-73
2022/01/06 06:31:18;;;;;;;14.63;13.90;;;4.90;99.90;;;;;;6212651;23;20519;-72
2022/01/06 06:33:45;;;;;;;15.03;14.13;;;4.90;99.90;;;;;;6212580;23;20411;-73
2022/01/06 06:36:12;;;;;;;15.17;14.13;;;4.80;99.90;;;;;;6212026;23;20911;-73
2022/01/06 06:38:40;;;;;;;15.47;14.57;;;4.90;99.90;;;;;;6212625;23;20461;-73
2022/01/06 06:41:06;;;;;;;14.50;13.73;;;5.00;99.90;;;;;;6212719;23;20473;-73
2022/01/06 06:43:33;;;;;;;14.40;13.70;;;5.10;99.90;;;;;;6212438;23;20412;-73
2022/01/06 06:46:00;;;;;;;14.73;13.97;;;5.10;99.90;;;;;;6212329;23;20407;-73
2022/01/06 06:48:26;;;;;;;14.53;13.70;;;5.10;99.90;;;;;;6212427;23;20746;-72
2022/01/06 06:50:53;;;;;;;14.30;13.70;;;5.10;99.90;;;;;;6212398;23;20571;-73
2022/01/06 06:53:20;;;;;;;14.87;13.90;;;5.20;99.90;;;;;;6212160;23;20409;-73
2022/01/06 06:55:48;;;;;;;15.07;13.80;;;5.20;99.90;;;;;;6212730;23;20465;-72
2022/01/06 06:58:15;;;;;;;14.23;13.47;;;5.10;99.90;;;;;;6212449;23;20443;-73
2022/01/06 07:00:41;;;;;;;14.03;13.43;;;5.10;99.90;;;;;;6212356;23;20659;-73
2022/01/06 07:03:08;;;;;;;14.87;13.93;;;5.00;99.90;;;;;;6211965;23;20444;-73
2022/01/06 07:05:35;;;;;;;14.53;13.87;;;4.90;99.90;;;;;;6212317;23;20792;-73
2022/01/06 07:08:01;;;;;;;14.87;14.10;;;4.80;99.90;;;;;;6212195;23;20444;-72
2022/01/06 07:10:28;;;;;;;16.30;15.23;;;4.70;99.90;;;;;;6212314;23;20422;-73
2022/01/06 07:12:56;;;;;;;15.27;14.37;;;4.60;99.90;;;;;;6212156;23;20411;-73
2022/01/06 07:15:23;;;;;;;15.57;14.77;;;4.60;99.90;;;;;;6212430;23;20612;-72
2022/01/06 07:17:50;;;;;;;16.53;15.10;;;4.60;99.90;;;;;;6212398;23;20446;-72
2022/01/06 07:20:16;;;;;;;15.33;13.97;;;4.60;99.90;;;;;;6212958;23;20454;-72
2022/01/06 07:22:44;;;;;;;15.03;13.80;;;4.60;99.90;;;;;;6211980;23;20420;-74
2022/01/06 07:25:11;;;;;;;14.83;13.93;;;4.60;99.90;;;;;;6211921;23;20486;-73
2022/01/06 07:27:37;;;;;;;16.43;15.43;;;4.50;99.90;;;;;;6211994;23;20403;-73
2022/01/06 07:30:07;;;;;;;15.20;14.20;;;4.50;99.90;;;;;;6211732;23;20416;-73
2022/01/06 07:32:42;;;;;;;15.67;14.50;;;4.40;99.90;;;;;;6212208;23;20491;-73
2022/01/06 07:35:09;;;;;;;15.73;14.73;;;4.30;99.90;;;;;;6211889;23;20726;-73
2022/01/06 07:37:36;;;;;;;14.30;13.30;;;4.30;99.90;;;;;;6211865;23;20805;-73
2022/01/06 07:40:02;;;;;;;15.53;14.43;;;4.40;99.90;;;;;;6211099;23;20475;-73
2022/01/06 07:42:29;;;;;;;15.53;14.43;;;4.30;99.90;;;;;;6211320;23;20832;-73
2022/01/06 07:44:58;;;;;;;22.60;20.27;;;4.30;99.90;;;;;;6210768;23;20407;-74
2022/01/06 07:47:28;;;;;;;18.40;16.90;;;4.30;99.90;;;;;;6210900;23;20499;-74
2022/01/06 07:49:55;;;;;;;14.17;12.97;;;4.40;99.90;;;;;;6211265;23;20452;-73
2022/01/06 07:52:22;;;;;;;13.20;12.50;;;4.40;99.90;;;;;;6210902;23;20416;-75
2022/01/06 07:54:49;;;;;;;13.97;13.00;;;4.30;99.90;;;;;;6211318;23;20784;-79
2022/01/06 07:57:16;;;;;;;14.70;13.57;;;4.30;99.90;;;;;;6211124;23;20866;-73
2022/01/06 07:59:42;;;;;;;13.77;12.47;;;4.30;99.90;;;;;;6212020;23;20408;-73
2022/01/06 08:02:09;;;;;;;13.93;13.13;;;4.30;99.90;;;;;;6211759;23;20459;-73
2022/01/06 08:04:37;;;;;;;14.27;13.30;;;4.30;99.90;;;;;;6212293;23;20476;-72
2022/01/06 08:07:05;;;;;;;15.03;13.37;;;4.30;99.90;;;;;;6211974;23;20815;-75
2022/01/06 08:09:32;;;;;;;14.93;13.80;;;4.30;99.90;;;;;;6211995;23;20761;-78
2022/01/06 10:52:51;;;;;;;12.23;11.60;;;7.30;99.90;;;;;;6212858;22;1221826;-75
2022/01/06 10:55:20;;;;;;;13.37;11.90;;;7.00;99.90;;;;;;6280203;22;20185;-76
2022/01/06 10:57:55;;;;;;;13.43;12.27;;;6.90;99.90;;;;;;6280264;22;20448;-75
2022/01/06 11:00:24;;;;;;;11.77;10.90;;;7.50;99.90;;;;;;6280486;22;20387;-74
2022/01/06 11:02:51;;;;;;;12.93;11.93;;;8.00;99.90;;;;;;6281627;22;20461;-75
2022/01/06 11:05:18;;;;;;;13.93;12.63;;;8.40;99.90;;;;;;6280432;22;20905;-76
2022/01/06 11:07:45;;;;;;;12.03;11.33;;;8.70;99.90;;;;;;6280817;22;20504;-75
2022/01/06 11:10:20;;;;;;;13.67;12.73;;;9.10;99.90;;;;;;6280786;22;20976;-75
2022/01/06 11:12:47;;;;;;;13.63;12.70;;;9.30;99.90;;;;;;6281456;22;20490;-74
2022/01/06 11:15:14;;;;;;;14.47;13.30;;;10.10;99.90;;;;;;6281388;22;20413;-75
2022/01/06 11:17:45;;;;;;;14.10;13.07;;;11.10;99.90;;;;;;6281202;22;20405;-75
2022/01/06 11:20:12;;;;;;;13.43;12.63;;;10.70;98.30;;;;;;6281436;22;20390;-75
2022/01/06 11:22:49;;;;;;;15.03;13.63;;;10.00;99.50;;;;;;6281544;22;20410;-75
2022/01/06 11:25:17;;;;;;;13.63;12.83;;;9.50;99.90;;;;;;6281616;22;20994;-75
2022/01/06 11:27:43;;;;;;;14.60;13.73;;;9.60;99.90;;;;;;6282416;22;21003;-77
2022/01/06 11:30:13;;;;;;;13.97;13.00;;;10.40;99.50;;;;;;6275151;22;20410;-78
2022/01/06 11:32:41;;;;;;;14.87;13.30;;;10.50;99.00;;;;;;6274875;22;20410;-78
2022/01/06 11:35:11;;;;;;;13.57;12.43;;;10.60;99.20;;;;;;6273944;22;20511;-77
2022/01/06 11:37:44;;;;;;;14.60;13.20;;;10.90;98.70;;;;;;6274395;22;20493;-77
2022/01/06 11:40:12;;;;;;;12.77;12.20;;;11.80;97.40;;;;;;6274790;22;20716;-77
2022/01/06 11:42:40;;;;;;;12.87;12.20;;;12.30;96.70;;;;;;6274685;22;20460;-77
2022/01/06 11:45:08;;;;;;;14.63;13.57;;;12.90;94.30;;;;;;6274333;22;21020;-75
2022/01/06 11:47:37;;;;;;;14.00;12.80;;;13.20;93.30;;;;;;6274391;22;20471;-78
2022/01/06 11:50:13;;;;;;;13.77;12.73;;;12.60;92.80;;;;;;6274670;22;20720;-79
2022/01/06 11:52:54;;;;;;;12.10;11.30;;;11.50;94.60;;;;;;6273272;22;20462;-78
2022/01/06 11:55:22;;;;;;;13.13;12.33;;;10.50;96.70;;;;;;6274655;22;20414;-78
2022/01/06 11:57:52;;;;;;;12.50;11.50;;;10.20;97.70;;;;;;6274355;22;20441;-79
2022/01/06 12:00:21;;;;;;;13.40;12.33;;;10.20;97.90;;;;;;6273485;22;20559;-78
2022/01/06 12:02:59;;;;;;;12.33;11.40;;;9.70;99.40;;;;;;6274245;22;20403;-78
2022/01/06 12:05:26;;;;;;;12.57;11.87;;;10.10;99.50;;;;;;6273993;22;20425;-78
2022/01/06 12:07:54;;;;;;;12.40;11.67;;;10.50;97.60;;;;;;6273976;22;20446;-77
2022/01/06 12:10:21;;;;;;;13.97;11.53;;;10.30;97.30;;;;;;6274371;22;20419;-80
2022/01/06 12:12:51;;;;;;;12.77;11.67;;;9.10;99.90;;;;;;6274104;22;20410;-77
2022/01/06 12:15:20;;;;;;;12.50;11.80;;;9.20;98.40;;;;;;6274500;22;20431;-76
2022/01/06 12:17:48;;;;;;;12.00;11.20;;;8.60;99.90;;;;;;6273650;22;20403;-76
2022/01/06 12:20:23;;;;;;;11.03;10.40;;;8.20;99.90;;;;;;6274333;22;20414;-76
2022/01/06 12:22:50;;;;;;;10.97;10.37;;;7.80;99.90;;;;;;6273878;22;20475;-79
2022/01/06 12:25:21;;;;;;;13.10;12.13;;;7.60;99.90;;;;;;6273674;22;20409;-76
2022/01/06 12:27:52;;;;;;;12.90;11.70;;;7.30;99.90;;;;;;6272412;22;21021;-79
2022/01/06 12:30:20;;;;;;;13.33;11.30;;;7.10;99.90;;;;;;6274233;22;20493;-76
2022/01/06 12:32:58;;;;;;;11.80;11.03;;;7.00;99.90;;;;;;6272466;22;20426;-75
2022/01/06 12:35:43;;;;;;;12.13;11.30;;;7.00;99.90;;;;;;6273403;22;20410;-76
2022/01/06 12:38:11;;;;;;;10.97;10.43;;;6.60;99.90;;;;;;6273920;22;20413;-76
2022/01/06 12:40:40;;;;;;;11.10;10.60;;;6.60;99.90;;;;;;6272712;22;20407;-77
2022/01/06 12:43:16;;;;;;;12.50;11.33;;;6.70;99.90;;;;;;6273363;22;20416;-77
2022/01/06 12:45:44;;;;;;;12.07;11.43;;;6.80;99.90;;;;;;6273625;22;20899;-77
2022/01/06 12:48:11;;;;;;;14.43;11.27;;;7.50;99.90;;;;;;6273762;22;20473;-78
2022/01/06 12:50:45;;;;;;;12.50;11.07;;;7.60;99.90;;;;;;6273891;22;20480;-76
2022/01/06 12:53:23;;;;;;;12.53;11.60;;;7.40;99.90;;;;;;6273480;22;20398;-78
2022/01/06 12:55:50;;;;;;;13.37;12.00;;;7.30;99.90;;;;;;6273879;22;20440;-78
2022/01/06 12:58:26;;;;;;;12.47;11.73;;;7.30;99.90;;;;;;6273714;22;20405;-78
2022/01/06 13:00:54;;;;;;;12.90;11.90;;;7.10;99.90;;;;;;6273146;22;20634;-79
2022/01/06 13:03:27;;;;;;;12.70;11.90;;;7.10;99.90;;;;;;6272311;22;21036;-78
2022/01/06 13:05:54;;;;;;;13.13;11.97;;;7.00;99.90;;;;;;6273431;22;20422;-78
2022/01/06 13:08:21;;;;;;;12.90;12.07;;;6.80;99.90;;;;;;6273676;22;20456;-78
2022/01/06 13:10:48;;;;;;;13.03;12.03;;;6.80;99.90;;;;;;6273436;22;20758;-79
2022/01/06 13:13:14;;;;;;;12.67;11.80;;;6.80;99.90;;;;;;6273174;22;20716;-79
2022/01/06 13:15:42;;;;;;;13.00;11.97;;;7.00;99.90;;;;;;6272836;22;20912;-80
2022/01/06 13:18:09;;;;;;;12.13;11.23;;;7.20;99.90;;;;;;6273296;22;20419;-80
2022/01/06 13:20:39;;;;;;;12.60;11.50;;;7.40;99.90;;;;;;6273191;22;20505;-81
2022/01/06 13:23:41;;;;;;;13.03;11.97;;;7.70;99.90;;;;;;6274260;22;20420;-81
2022/01/06 13:26:10;;;;;;;12.33;11.53;;;7.90;99.90;;;;;;6274887;22;20399;-81
2022/01/06 13:28:37;;;;;;;12.27;11.23;;;8.20;99.90;;;;;;6293407;22;20731;-80
2022/01/06 13:31:17;;;;;;;11.90;11.03;;;8.40;99.90;;;;;;6299992;22;20421;-80
2022/01/06 13:33:54;;;;;;;13.00;12.00;;;8.70;99.90;;;;;;6275142;22;20395;-79
2022/01/06 13:36:28;;;;;;;12.07;11.37;;;8.80;99.90;;;;;;6274385;22;20718;-75
2022/01/06 13:39:06;;;;;;;12.60;11.57;;;8.90;99.90;;;;;;6273545;22;20413;-75
2022/01/06 13:41:34;;;;;;;12.10;11.07;;;9.10;99.90;;;;;;6272510;22;20398;-75
2022/01/06 13:44:05;;;;;;;11.57;10.80;;;8.90;99.90;;;;;;6273077;22;20461;-75
2022/01/06 13:46:42;;;;;;;11.90;10.80;;;8.90;99.90;;;;;;6272807;22;20396;-75
2022/01/06 13:51:54;;;;;;;12.17;10.97;;;8.70;99.90;;;;;;6272249;22;20433;-75
2022/01/06 13:54:20;;;;;;;10.77;10.17;;;8.80;99.90;;;;;;6272925;22;20407;-75
2022/01/06 13:56:47;;;;;;;10.83;10.23;;;8.70;99.90;;;;;;6273154;22;20414;-75
2022/01/06 13:59:15;;;;;;;12.63;11.33;;;8.70;99.80;;;;;;6272312;22;20411;-75
2022/01/06 14:01:47;;;;;;;10.80;9.90;;;8.70;99.90;;;;;;6272955;22;20770;-75
2022/01/06 14:04:19;;;;;;;10.87;10.10;;;8.40;99.90;;;;;;6272815;22;20403;-75
2022/01/06 14:06:46;;;;;;;10.80;10.23;;;8.40;99.90;;;;;;6272954;22;20397;-75
2022/01/06 14:09:13;;;;;;;11.57;10.87;;;8.40;99.90;;;;;;6272284;22;20438;-75
2022/01/06 14:11:40;;;;;;;11.10;10.17;;;8.30;99.90;;;;;;6272189;22;20413;-75
2022/01/06 14:14:07;;;;;;;21.30;19.83;;;8.20;99.90;;;;;;6272989;22;20417;-74
2022/01/06 14:16:33;;;;;;;11.97;11.07;;;8.20;99.90;;;;;;6272675;22;20551;-75
2022/01/06 14:19:01;;;;;;;11.80;11.10;;;8.30;99.90;;;;;;6272473;22;20415;-75
2022/01/06 14:21:28;;;;;;;11.90;11.10;;;8.30;99.90;;;;;;6272053;22;20410;-75
2022/01/06 14:23:55;;;;;;;12.57;11.87;;;8.40;99.90;;;;;;6272018;22;20409;-75
2022/01/06 14:26:21;;;;;;;12.23;11.17;;;8.40;99.90;;;;;;6272400;22;20776;-74
2022/01/06 14:28:48;;;;;;;11.97;11.07;;;8.50;99.90;;;;;;6272311;22;20439;-74
2022/01/06 14:31:15;;;;;;;11.40;10.47;;;8.50;99.90;;;;;;6272969;22;20422;-76
2022/01/06 14:33:42;;;;;;;11.17;10.40;;;8.40;99.90;;;;;;6272755;22;20782;-74
2022/01/06 14:36:12;;;;;;;10.53;10.03;;;8.40;99.90;;;;;;6272925;22;20411;-75
2022/01/06 14:38:41;;;;;;;11.30;10.23;;;8.30;99.90;;;;;;6272968;22;20403;-74
2022/01/06 14:41:08;;;;;;;11.40;10.53;;;8.10;99.40;;;;;;6272246;22;20415;-75
2022/01/06 14:43:36;;;;;;;11.43;10.50;;;7.80;99.80;;;;;;6272620;22;20458;-76
2022/01/06 14:46:03;;;;;;;12.00;11.17;;;7.70;99.90;;;;;;6272637;22;20928;-74
2022/01/06 14:48:30;;;;;;;11.10;10.30;;;7.60;99.90;;;;;;6272549;22;20822;-74
2022/01/06 14:50:57;;;;;;;10.77;9.97;;;7.50;99.90;;;;;;6272113;22;20426;-74
2022/01/06 14:53:25;;;;;;;11.33;10.43;;;7.40;99.90;;;;;;6272370;22;20406;-74
2022/01/06 14:55:51;;;;;;;12.83;11.33;;;7.40;99.90;;;;;;6273011;22;20785;-74
2022/01/06 14:58:18;;;;;;;11.70;10.83;;;7.20;99.90;;;;;;6272659;22;20455;-74
2022/01/06 15:00:45;;;;;;;10.90;10.23;;;7.20;99.90;;;;;;6271904;22;20913;-74
2022/01/06 15:03:12;;;;;;;11.00;10.10;;;7.20;99.90;;;;;;6272893;22;20410;-74
2022/01/06 15:05:39;;;;;;;11.03;10.30;;;7.20;99.90;;;;;;6274347;22;20476;-75
2022/01/06 15:08:06;;;;;;;11.83;10.97;;;7.20;99.90;;;;;;6274382;22;20462;-74
2022/01/06 15:10:34;;;;;;;11.57;10.70;;;7.10;99.90;;;;;;6273842;22;20433;-74
2022/01/06 15:13:00;;;;;;;10.40;9.60;;;7.20;99.90;;;;;;6274259;22;20405;-75
2022/01/06 15:15:27;;;;;;;10.87;10.00;;;7.20;99.90;;;;;;6274137;22;20414;-74
2022/01/06 15:17:54;;;;;;;10.57;9.60;;;7.30;99.90;;;;;;6273892;22;20509;-75
2022/01/06 15:20:21;;;;;;;12.03;11.00;;;7.40;99.90;;;;;;6274332;22;20414;-74
2022/01/06 15:22:48;;;;;;;12.37;11.37;;;7.30;99.90;;;;;;6273992;22;20478;-74
2022/01/06 15:25:14;;;;;;;12.00;11.10;;;7.40;99.90;;;;;;6273964;22;20417;-74
2022/01/06 15:27:43;;;;;;;14.43;13.20;;;7.00;99.90;;;;;;6274146;22;20407;-74
2022/01/06 15:30:11;;;;;;;14.23;13.10;;;6.70;99.90;;;;;;6273887;22;20442;-75